Back to Top

Language: 

My Weather Underground Personal Weather Station Historical Data with Graphs...

Delerius Weather Station Historical Data
Daily Summary for September 26, 2017 Units:  English    Metric   Both
« Previous Day
Next Day »
Daily Weekly Monthly Yearly Custom
  High: Low: Average:
Temperature: 64.2 °F 55.0 °F 58.4 °F
Dew Point: 57.2 °F 53.9 °F 55.6 °F
Humidity: 98 % 76 % 91 %
Wind Speed: 7.0 mph 0.0 mph 1.5 mph
Wind Gust: 14.0 mph - -
Wind:- - East
Pressure: 30.23 in 30.18 in -
Precipitation: 0.00 in    
Historical Graphs
 
 
Tabular Data for September 26, 2017
Time Temperature Dew Point Pressure Wind Wind Speed Wind Gust Humidity Rainfall Rate (Hourly) solar Conditions
00:04 57.7 °F 56.0 °F 30.20 in Calm     94 % 0.00 in 0 W/m2
00:06 57.6 °F 55.8 °F 30.20 in Calm     94 % 0.00 in 0 W/m2
00:11 57.6 °F 55.8 °F 30.20 in Calm     94 % 0.00 in 0 W/m2
00:16 57.6 °F 55.8 °F 30.20 in Calm   1.0 mph 94 % 0.00 in 0 W/m2
00:21 57.4 °F 55.7 °F 30.20 in Calm   1.0 mph 94 % 0.00 in 0 W/m2
00:26 57.4 °F 55.7 °F 30.20 in Calm     94 % 0.00 in 0 W/m2
00:31 57.4 °F 55.7 °F 30.20 in Calm     94 % 0.00 in 0 W/m2
00:36 57.4 °F 56.0 °F 30.20 in Calm   2.0 mph 95 % 0.00 in 0 W/m2
00:41 57.4 °F 56.0 °F 30.20 in Calm   2.0 mph 95 % 0.00 in 0 W/m2
00:46 57.4 °F 56.0 °F 30.20 in Calm   3.0 mph 95 % 0.00 in 0 W/m2
00:51 57.2 °F 55.8 °F 30.20 in Calm   5.0 mph 95 % 0.00 in 0 W/m2
00:56 57.2 °F 55.8 °F 30.20 in Calm   5.0 mph 95 % 0.00 in 0 W/m2
01:00 57.2 °F 55.8 °F 30.20 in Calm   1.0 mph 95 % 0.00 in 0 W/m2
01:05 57.2 °F 55.8 °F 30.20 in Calm   4.0 mph 95 % 0.00 in 0 W/m2
01:10 57.2 °F 55.8 °F 30.20 in ENE 1.0 mph 4.0 mph 95 % 0.00 in 0 W/m2
01:15 57.0 °F 55.6 °F 30.20 in ENE 1.0 mph 4.0 mph 95 % 0.00 in 0 W/m2
01:20 57.0 °F 55.6 °F 30.20 in ENE 1.0 mph 4.0 mph 95 % 0.00 in 0 W/m2
01:25 57.0 °F 55.6 °F 30.20 in Calm   2.0 mph 95 % 0.00 in 0 W/m2
01:30 57.0 °F 55.6 °F 30.21 in Calm   1.0 mph 95 % 0.00 in 0 W/m2
01:35 57.0 °F 55.6 °F 30.21 in Calm   1.0 mph 95 % 0.00 in 0 W/m2
01:40 57.0 °F 55.6 °F 30.20 in Calm   1.0 mph 95 % 0.00 in 0 W/m2
01:45 57.0 °F 55.6 °F 30.21 in Calm   1.0 mph 95 % 0.00 in 0 W/m2
01:50 57.0 °F 55.6 °F 30.21 in Calm   1.0 mph 95 % 0.00 in 0 W/m2
01:55 57.0 °F 55.6 °F 30.20 in Calm     95 % 0.00 in 0 W/m2
02:00 57.0 °F 55.6 °F 30.20 in Calm     95 % 0.00 in 0 W/m2
02:05 57.0 °F 55.6 °F 30.20 in Calm     95 % 0.00 in 0 W/m2
02:10 57.0 °F 55.6 °F 30.20 in Calm   4.0 mph 95 % 0.00 in 0 W/m2
02:15 57.0 °F 55.6 °F 30.20 in ENE 1.0 mph 4.0 mph 95 % 0.00 in 0 W/m2
02:20 57.0 °F 55.6 °F 30.20 in Calm   4.0 mph 95 % 0.00 in 0 W/m2
02:25 57.0 °F 55.6 °F 30.20 in Calm   2.0 mph 95 % 0.00 in 0 W/m2
02:30 56.8 °F 55.4 °F 30.20 in Calm   3.0 mph 95 % 0.00 in 0 W/m2
02:35 56.8 °F 55.4 °F 30.20 in Calm   3.0 mph 95 % 0.00 in 0 W/m2
02:40 56.8 °F 55.4 °F 30.20 in Calm     95 % 0.00 in 0 W/m2
02:50 56.8 °F 55.4 °F 30.20 in Calm     95 % 0.00 in 0 W/m2
02:55 56.8 °F 55.7 °F 30.20 in Calm     96 % 0.00 in 0 W/m2
03:00 56.8 °F 55.7 °F 30.20 in Calm   2.0 mph 96 % 0.00 in 0 W/m2
03:05 56.8 °F 55.7 °F 30.20 in Calm   4.0 mph 96 % 0.00 in 0 W/m2
03:06 56.7 °F 55.5 °F 30.20 in Calm   4.0 mph 96 % 0.00 in 0 W/m2
03:11 56.7 °F 55.5 °F 30.21 in Calm   4.0 mph 96 % 0.00 in 0 W/m2
03:16 56.7 °F 55.5 °F 30.20 in Calm   2.0 mph 96 % 0.00 in 0 W/m2
03:17 56.7 °F 55.5 °F 30.21 in Calm   5.0 mph 96 % 0.00 in 0 W/m2
03:22 56.7 °F 55.5 °F 30.21 in ENE 1.0 mph 5.0 mph 96 % 0.00 in 0 W/m2
03:27 56.7 °F 55.2 °F 30.21 in ENE 1.0 mph 5.0 mph 95 % 0.00 in 0 W/m2
03:32 56.5 °F 55.1 °F 30.21 in ENE 1.0 mph 6.0 mph 95 % 0.00 in 0 W/m2
03:37 56.5 °F 55.4 °F 30.21 in ENE 1.0 mph 6.0 mph 96 % 0.00 in 0 W/m2
03:42 56.5 °F 55.4 °F 30.21 in ENE 1.0 mph 5.0 mph 96 % 0.00 in 0 W/m2
03:47 56.5 °F 55.4 °F 30.21 in ENE 1.0 mph 5.0 mph 96 % 0.00 in 0 W/m2
03:48 56.5 °F 55.4 °F 30.21 in ENE 1.0 mph 5.0 mph 96 % 0.00 in 0 W/m2
03:53 56.3 °F 55.2 °F 30.21 in NE 2.0 mph 6.0 mph 96 % 0.00 in 0 W/m2
03:58 56.1 °F 55.0 °F 30.21 in NE 1.0 mph 6.0 mph 96 % 0.00 in 0 W/m2
04:03 56.1 °F 55.0 °F 30.21 in Calm   4.0 mph 96 % 0.00 in 0 W/m2
04:08 56.1 °F 55.0 °F 30.21 in Calm   4.0 mph 96 % 0.00 in 0 W/m2
04:14 56.1 °F 55.0 °F 30.21 in Calm   4.0 mph 96 % 0.00 in 0 W/m2
04:24 56.1 °F 55.0 °F 30.21 in Calm   4.0 mph 96 % 0.00 in 0 W/m2
04:25 56.1 °F 55.0 °F 30.21 in Calm   4.0 mph 96 % 0.00 in 0 W/m2
04:27 56.1 °F 55.0 °F 30.20 in Calm   4.0 mph 96 % 0.00 in 0 W/m2
04:29 56.1 °F 55.0 °F 30.20 in Calm   4.0 mph 96 % 0.00 in 0 W/m2
04:31 56.1 °F 55.0 °F 30.20 in Calm   4.0 mph 96 % 0.00 in 0 W/m2
04:36 55.9 °F 54.8 °F 30.20 in Calm   3.0 mph 96 % 0.00 in 0 W/m2
04:41 55.9 °F 54.8 °F 30.20 in Calm   3.0 mph 96 % 0.00 in 0 W/m2
04:51 55.9 °F 54.8 °F 30.20 in Calm     96 % 0.00 in 0 W/m2
04:56 55.9 °F 54.8 °F 30.20 in Calm   2.0 mph 96 % 0.00 in 0 W/m2
04:58 55.9 °F 54.8 °F 30.20 in Calm   3.0 mph 96 % 0.00 in 0 W/m2
05:03 55.9 °F 54.8 °F 30.20 in Calm   3.0 mph 96 % 0.00 in 0 W/m2
05:08 55.8 °F 54.6 °F 30.20 in Calm   2.0 mph 96 % 0.00 in 0 W/m2
05:13 55.8 °F 54.6 °F 30.20 in NE 1.0 mph 4.0 mph 96 % 0.00 in 0 W/m2
05:18 55.6 °F 54.5 °F 30.20 in Calm   4.0 mph 96 % 0.00 in 0 W/m2
05:23 55.6 °F 54.5 °F 30.20 in Calm   1.0 mph 96 % 0.00 in 0 W/m2
05:28 55.6 °F 54.5 °F 30.20 in Calm   1.0 mph 96 % 0.00 in 0 W/m2
05:33 55.6 °F 54.5 °F 30.20 in Calm     96 % 0.00 in 0 W/m2
05:38 55.4 °F 54.3 °F 30.20 in Calm   2.0 mph 96 % 0.00 in 0 W/m2
05:43 55.4 °F 54.3 °F 30.20 in Calm   2.0 mph 96 % 0.00 in 0 W/m2
05:48 55.2 °F 54.1 °F 30.20 in Calm   2.0 mph 96 % 0.00 in 0 W/m2
05:53 55.2 °F 54.4 °F 30.20 in Calm   2.0 mph 97 % 0.00 in 0 W/m2
05:58 55.2 °F 54.4 °F 30.20 in Calm   2.0 mph 97 % 0.00 in 0 W/m2
06:03 55.2 °F 54.4 °F 30.20 in Calm   2.0 mph 97 % 0.00 in 0 W/m2
06:08 55.0 °F 54.2 °F 30.20 in Calm     97 % 0.00 in 0 W/m2
06:14 55.0 °F 54.2 °F 30.21 in Calm   2.0 mph 97 % 0.00 in 0 W/m2
06:19 55.0 °F 54.2 °F 30.21 in Calm   2.0 mph 97 % 0.00 in 0 W/m2
06:24 55.0 °F 54.2 °F 30.21 in Calm     97 % 0.00 in 0 W/m2
06:29 55.0 °F 54.2 °F 30.21 in Calm     97 % 0.00 in 0 W/m2
06:34 55.0 °F 54.2 °F 30.21 in Calm     97 % 0.00 in 0 W/m2
06:39 55.0 °F 54.2 °F 30.21 in Calm   2.0 mph 97 % 0.00 in 0 W/m2
06:44 55.0 °F 54.2 °F 30.21 in Calm   2.0 mph 97 % 0.00 in 0 W/m2
06:49 55.0 °F 54.2 °F 30.21 in Calm     97 % 0.00 in 0 W/m2
06:54 55.0 °F 54.2 °F 30.21 in Calm     97 % 0.00 in 0 W/m2
06:59 55.0 °F 54.2 °F 30.21 in Calm     97 % 0.00 in 0 W/m2
07:04 55.0 °F 54.2 °F 30.21 in Calm     97 % 0.00 in 0 W/m2
07:09 55.0 °F 54.2 °F 30.21 in Calm     97 % 0.00 in 0 W/m2
07:14 55.0 °F 54.2 °F 30.22 in Calm     97 % 0.00 in 5 W/m2
07:19 55.2 °F 54.4 °F 30.22 in Calm     97 % 0.00 in 7 W/m2
07:24 55.2 °F 54.4 °F 30.21 in Calm   2.0 mph 97 % 0.00 in 7 W/m2
07:29 55.2 °F 54.4 °F 30.21 in Calm   2.0 mph 97 % 0.00 in 11 W/m2
07:34 55.2 °F 54.4 °F 30.22 in Calm     97 % 0.00 in 14 W/m2
07:39 55.2 °F 54.4 °F 30.22 in Calm   1.0 mph 97 % 0.00 in 11 W/m2
07:44 55.2 °F 54.4 °F 30.22 in Calm   1.0 mph 97 % 0.00 in 12 W/m2
07:49 55.2 °F 54.4 °F 30.22 in Calm   1.0 mph 97 % 0.00 in 21 W/m2
07:59 55.4 °F 54.6 °F 30.22 in Calm     97 % 0.00 in 12 W/m2
08:04 55.4 °F 54.6 °F 30.22 in Calm     97 % 0.00 in 19 W/m2
08:09 55.4 °F 54.6 °F 30.22 in Calm     97 % 0.00 in 18 W/m2
08:14 55.6 °F 54.7 °F 30.23 in Calm     97 % 0.00 in 14 W/m2
08:19 55.6 °F 54.7 °F 30.23 in Calm     97 % 0.00 in 39 W/m2
08:24 55.6 °F 54.7 °F 30.23 in Calm     97 % 0.00 in 42 W/m2
08:29 55.8 °F 54.9 °F 30.23 in Calm     97 % 0.00 in 39 W/m2
08:34 55.8 °F 54.9 °F 30.23 in Calm     97 % 0.00 in 33 W/m2
08:39 55.8 °F 54.9 °F 30.23 in Calm     97 % 0.00 in 37 W/m2
08:44 55.8 °F 54.9 °F 30.23 in Calm     97 % 0.00 in 40 W/m2
08:49 55.9 °F 55.1 °F 30.23 in Calm   1.0 mph 97 % 0.00 in 44 W/m2
08:54 55.9 °F 55.1 °F 30.23 in Calm   1.0 mph 97 % 0.00 in 77 W/m2
08:59 55.9 °F 55.1 °F 30.23 in Calm   4.0 mph 97 % 0.00 in 53 W/m2
09:04 55.9 °F 55.1 °F 30.23 in Calm   4.0 mph 97 % 0.00 in 28 W/m2
09:09 55.9 °F 55.1 °F 30.23 in Calm   2.0 mph 97 % 0.00 in 51 W/m2
09:15 56.1 °F 55.3 °F 30.23 in NE 1.0 mph 3.0 mph 97 % 0.00 in 111 W/m2
09:20 56.1 °F 55.3 °F 30.23 in Calm   4.0 mph 97 % 0.00 in 141 W/m2
09:25 56.3 °F 55.5 °F 30.23 in NE 1.0 mph 4.0 mph 97 % 0.00 in 77 W/m2
09:30 56.5 °F 55.6 °F 30.23 in NE 1.0 mph 6.0 mph 97 % 0.00 in 100 W/m2
09:35 56.5 °F 55.9 °F 30.23 in NE 1.0 mph 6.0 mph 98 % 0.00 in 142 W/m2
09:40 56.8 °F 56.0 °F 30.23 in NE 2.0 mph 6.0 mph 97 % 0.00 in 181 W/m2
09:45 56.8 °F 56.0 °F 30.23 in ENE 1.0 mph 7.0 mph 97 % 0.00 in 271 W/m2
09:50 57.0 °F 56.2 °F 30.23 in East 1.0 mph 7.0 mph 97 % 0.00 in 200 W/m2
09:55 56.8 °F 56.0 °F 30.23 in East 2.0 mph 7.0 mph 97 % 0.00 in 158 W/m2
10:00 57.0 °F 56.2 °F 30.23 in East 2.0 mph 7.0 mph 97 % 0.00 in 204 W/m2
10:05 57.0 °F 56.2 °F 30.23 in East 2.0 mph 6.0 mph 97 % 0.00 in 149 W/m2
10:10 57.4 °F 56.5 °F 30.23 in East 2.0 mph 6.0 mph 97 % 0.00 in 142 W/m2
10:15 57.4 °F 56.5 °F 30.23 in East 2.0 mph 5.0 mph 97 % 0.00 in 153 W/m2
10:20 57.4 °F 56.5 °F 30.23 in ENE 1.0 mph 5.0 mph 97 % 0.00 in 160 W/m2
10:25 57.6 °F 56.7 °F 30.23 in ENE 1.0 mph 4.0 mph 97 % 0.00 in 158 W/m2
10:30 57.7 °F 56.6 °F 30.23 in ENE 1.0 mph 5.0 mph 96 % 0.00 in 179 W/m2
10:35 57.7 °F 56.6 °F 30.23 in ENE 1.0 mph 5.0 mph 96 % 0.00 in 188 W/m2
10:40 57.9 °F 56.5 °F 30.23 in Calm   3.0 mph 95 % 0.00 in 214 W/m2
10:45 58.3 °F 56.9 °F 30.23 in Calm   3.0 mph 95 % 0.00 in 243 W/m2
10:50 58.5 °F 56.7 °F 30.22 in ENE 1.0 mph 4.0 mph 94 % 0.00 in 267 W/m2
10:55 58.6 °F 56.6 °F 30.22 in ENE 1.0 mph 4.0 mph 93 % 0.00 in 302 W/m2
11:00 59.0 °F 57.0 °F 30.22 in ENE 1.0 mph 4.0 mph 93 % 0.00 in 262 W/m2
11:05 59.4 °F 56.7 °F 30.22 in ENE 1.0 mph 5.0 mph 91 % 0.00 in 207 W/m2
11:10 59.5 °F 56.9 °F 30.22 in ENE 1.0 mph 5.0 mph 91 % 0.00 in 174 W/m2
11:15 59.7 °F 56.5 °F 30.22 in ENE 1.0 mph 4.0 mph 89 % 0.00 in 98 W/m2
11:20 59.7 °F 56.2 °F 30.23 in East 2.0 mph 6.0 mph 88 % 0.00 in 102 W/m2
11:25 59.7 °F 55.8 °F 30.23 in East 2.0 mph 6.0 mph 87 % 0.00 in 97 W/m2
11:30 59.7 °F 55.8 °F 30.23 in East 1.0 mph 5.0 mph 87 % 0.00 in 77 W/m2
11:35 59.7 °F 55.8 °F 30.23 in East 1.0 mph 5.0 mph 87 % 0.00 in 74 W/m2
11:37 59.9 °F 56.0 °F 30.23 in East 1.0 mph 5.0 mph 87 % 0.00 in 74 W/m2
11:42 59.9 °F 56.0 °F 30.23 in East 1.0 mph 4.0 mph 87 % 0.00 in 67 W/m2
11:52 59.7 °F 55.8 °F 30.23 in East 1.0 mph 5.0 mph 87 % 0.00 in 113 W/m2
11:54 59.7 °F 55.8 °F 30.23 in East 1.0 mph 5.0 mph 87 % 0.00 in 127 W/m2
11:59 59.7 °F 55.8 °F 30.23 in East 2.0 mph 5.0 mph 87 % 0.00 in 158 W/m2
12:09 59.9 °F 56.3 °F 30.23 in East 1.0 mph 5.0 mph 88 % 0.00 in 146 W/m2
12:14 60.1 °F 56.2 °F 30.22 in East 2.0 mph 7.0 mph 87 % 0.00 in 142 W/m2
12:19 60.3 °F 56.4 °F 30.22 in East 2.0 mph 7.0 mph 87 % 0.00 in 149 W/m2
12:24 60.3 °F 56.1 °F 30.22 in East 2.0 mph 5.0 mph 86 % 0.00 in 158 W/m2
12:29 60.3 °F 56.1 °F 30.22 in East 2.0 mph 5.0 mph 86 % 0.00 in 151 W/m2
12:34 60.4 °F 56.2 °F 30.22 in Calm   3.0 mph 86 % 0.00 in 163 W/m2
12:39 60.6 °F 56.1 °F 30.22 in ESE 1.0 mph 5.0 mph 85 % 0.00 in 206 W/m2
12:44 60.6 °F 56.1 °F 30.22 in ESE 2.0 mph 5.0 mph 85 % 0.00 in 251 W/m2
12:49 60.8 °F 55.9 °F 30.22 in ESE 2.0 mph 5.0 mph 84 % 0.00 in 285 W/m2
12:54 61.0 °F 56.1 °F 30.22 in ESE 1.0 mph 5.0 mph 84 % 0.00 in 295 W/m2
12:59 61.3 °F 56.5 °F 30.22 in East 1.0 mph 5.0 mph 84 % 0.00 in 234 W/m2
13:04 61.5 °F 56.3 °F 30.22 in ESE 2.0 mph 7.0 mph 83 % 0.00 in 285 W/m2
13:09 61.7 °F 56.1 °F 30.22 in SE 3.0 mph 7.0 mph 82 % 0.00 in 336 W/m2
13:14 61.9 °F 56.0 °F 30.21 in SE 3.0 mph 7.0 mph 81 % 0.00 in 399 W/m2
13:20 62.2 °F 56.3 °F 30.22 in ESE 2.0 mph 6.0 mph 81 % 0.00 in 290 W/m2
13:25 62.4 °F 55.8 °F 30.22 in ESE 3.0 mph 8.0 mph 79 % 0.00 in 295 W/m2
13:30 62.6 °F 56.0 °F 30.21 in SE 4.0 mph 8.0 mph 79 % 0.00 in 229 W/m2
13:35 62.6 °F 55.6 °F 30.22 in SE 3.0 mph 7.0 mph 78 % 0.00 in 278 W/m2
13:40 62.8 °F 55.8 °F 30.22 in ESE 3.0 mph 7.0 mph 78 % 0.00 in 504 W/m2
13:44 63.0 °F 55.3 °F 30.21 in SE 4.0 mph 7.0 mph 76 % 0.00 in 346 W/m2
13:49 63.0 °F 55.3 °F 30.21 in SE 5.0 mph 7.0 mph 76 % 0.00 in 422 W/m2
13:55 63.1 °F 55.8 °F 30.21 in SE 4.0 mph 7.0 mph 77 % 0.00 in 246 W/m2
14:00 63.3 °F 56.0 °F 30.21 in SE 2.0 mph 6.0 mph 77 % 0.00 in 220 W/m2
14:05 63.3 °F 56.0 °F 30.21 in SE 2.0 mph 6.0 mph 77 % 0.00 in 230 W/m2
14:10 63.3 °F 56.0 °F 30.21 in ESE 3.0 mph 9.0 mph 77 % 0.00 in 225 W/m2
14:15 63.1 °F 55.8 °F 30.21 in ESE 4.0 mph 9.0 mph 77 % 0.00 in 186 W/m2
14:20 63.1 °F 55.8 °F 30.21 in ESE 3.0 mph 9.0 mph 77 % 0.00 in 162 W/m2
14:25 63.0 °F 56.0 °F 30.21 in ESE 2.0 mph 7.0 mph 78 % 0.00 in 188 W/m2
14:30 63.0 °F 56.3 °F 30.20 in ESE 3.0 mph 7.0 mph 79 % 0.00 in 195 W/m2
14:35 63.1 °F 56.5 °F 30.21 in ESE 2.0 mph 7.0 mph 79 % 0.00 in 151 W/m2
14:40 63.1 °F 56.2 °F 30.20 in ESE 1.0 mph 6.0 mph 78 % 0.00 in 192 W/m2
14:44 63.0 °F 56.3 °F 30.20 in East 2.0 mph 6.0 mph 79 % 0.00 in 246 W/m2
14:49 63.1 °F 56.5 °F 30.20 in East 2.0 mph 6.0 mph 79 % 0.00 in 234 W/m2
14:55 63.1 °F 56.5 °F 30.20 in ESE 3.0 mph 6.0 mph 79 % 0.00 in 207 W/m2
15:00 63.1 °F 56.2 °F 30.20 in ESE 2.0 mph 6.0 mph 78 % 0.00 in 225 W/m2
15:05 63.1 °F 56.2 °F 30.20 in ESE 3.0 mph 6.0 mph 78 % 0.00 in 199 W/m2
15:10 63.1 °F 56.5 °F 30.20 in East 3.0 mph 6.0 mph 79 % 0.00 in 229 W/m2
15:15 63.3 °F 56.7 °F 30.20 in East 2.0 mph 6.0 mph 79 % 0.00 in 279 W/m2
15:20 63.3 °F 56.7 °F 30.20 in East 2.0 mph 6.0 mph 79 % 0.00 in 243 W/m2
15:25 63.3 °F 56.3 °F 30.20 in East 2.0 mph 5.0 mph 78 % 0.00 in 183 W/m2
15:30 63.3 °F 56.7 °F 30.19 in ESE 2.0 mph 6.0 mph 79 % 0.00 in 148 W/m2
15:35 63.1 °F 56.5 °F 30.20 in East 2.0 mph 6.0 mph 79 % 0.00 in 137 W/m2
15:40 63.0 °F 56.3 °F 30.19 in East 2.0 mph 5.0 mph 79 % 0.00 in 137 W/m2
15:45 63.0 °F 56.7 °F 30.19 in East 1.0 mph 5.0 mph 80 % 0.00 in 151 W/m2
15:50 63.0 °F 56.7 °F 30.19 in East 1.0 mph 3.0 mph 80 % 0.00 in 144 W/m2
15:55 63.0 °F 56.3 °F 30.19 in East 1.0 mph 5.0 mph 79 % 0.00 in 193 W/m2
16:00 63.1 °F 56.9 °F 30.19 in East 1.0 mph 5.0 mph 80 % 0.00 in 320 W/m2
16:05 63.3 °F 56.7 °F 30.19 in East 1.0 mph 5.0 mph 79 % 0.00 in 367 W/m2
16:10 63.9 °F 57.2 °F 30.19 in East 2.0 mph 9.0 mph 79 % 0.00 in 408 W/m2
16:15 64.0 °F 57.0 °F 30.19 in East 2.0 mph 9.0 mph 78 % 0.00 in 207 W/m2
16:20 64.2 °F 56.9 °F 30.19 in East 3.0 mph 7.0 mph 77 % 0.00 in 227 W/m2
16:25 64.0 °F 56.7 °F 30.18 in East 4.0 mph 8.0 mph 77 % 0.00 in 116 W/m2
16:30 63.9 °F 56.1 °F 30.18 in East 4.0 mph 8.0 mph 76 % 0.00 in 107 W/m2
16:35 63.5 °F 55.8 °F 30.18 in East 4.0 mph 8.0 mph 76 % 0.00 in 105 W/m2
16:40 63.3 °F 56.0 °F 30.18 in East 4.0 mph 8.0 mph 77 % 0.00 in 98 W/m2
16:45 63.1 °F 55.8 °F 30.18 in ESE 3.0 mph 8.0 mph 77 % 0.00 in 74 W/m2
16:50 63.1 °F 56.2 °F 30.19 in ESE 3.0 mph 8.0 mph 78 % 0.00 in 62 W/m2
16:55 63.0 °F 56.0 °F 30.19 in ESE 2.0 mph 7.0 mph 78 % 0.00 in 77 W/m2
17:00 62.8 °F 56.2 °F 30.19 in ESE 2.0 mph 6.0 mph 79 % 0.00 in 100 W/m2
17:05 62.8 °F 56.2 °F 30.19 in ESE 1.0 mph 5.0 mph 79 % 0.00 in 67 W/m2
17:10 62.8 °F 56.2 °F 30.18 in Calm   3.0 mph 79 % 0.00 in 79 W/m2
17:16 62.6 °F 56.3 °F 30.18 in Calm   3.0 mph 80 % 0.00 in 91 W/m2
17:21 62.6 °F 56.7 °F 30.18 in Calm   2.0 mph 81 % 0.00 in 65 W/m2
17:26 62.4 °F 56.5 °F 30.18 in Calm   2.0 mph 81 % 0.00 in 62 W/m2
17:31 62.4 °F 56.5 °F 30.18 in Calm   4.0 mph 81 % 0.00 in 67 W/m2
17:36 62.2 °F 56.3 °F 30.18 in East 2.0 mph 7.0 mph 81 % 0.00 in 77 W/m2
17:41 62.2 °F 56.3 °F 30.18 in East 3.0 mph 7.0 mph 81 % 0.00 in 70 W/m2
17:46 62.2 °F 56.3 °F 30.18 in East 4.0 mph 8.0 mph 81 % 0.00 in 53 W/m2
17:51 62.2 °F 56.7 °F 30.18 in East 3.0 mph 8.0 mph 82 % 0.00 in 32 W/m2
17:56 62.1 °F 56.5 °F 30.18 in East 3.0 mph 7.0 mph 82 % 0.00 in 42 W/m2
18:01 62.1 °F 56.5 °F 30.18 in ESE 3.0 mph 7.0 mph 82 % 0.00 in 42 W/m2
18:06 62.1 °F 56.8 °F 30.18 in ESE 2.0 mph 6.0 mph 83 % 0.00 in 44 W/m2
18:16 61.7 °F 56.5 °F 30.19 in East 2.0 mph 6.0 mph 83 % 0.00 in 37 W/m2
18:21 61.5 °F 56.6 °F 30.19 in East 1.0 mph 5.0 mph 84 % 0.00 in 32 W/m2
18:26 61.3 °F 56.5 °F 30.19 in East 1.0 mph 5.0 mph 84 % 0.00 in 26 W/m2
18:31 61.2 °F 56.3 °F 30.19 in East 1.0 mph 5.0 mph 84 % 0.00 in 21 W/m2
18:36 61.0 °F 56.4 °F 30.19 in East 1.0 mph 5.0 mph 85 % 0.00 in 16 W/m2
18:41 60.8 °F 56.3 °F 30.19 in East 1.0 mph 5.0 mph 85 % 0.00 in 12 W/m2
18:46 60.6 °F 56.1 °F 30.19 in Calm   5.0 mph 85 % 0.00 in 7 W/m2
18:51 60.4 °F 56.2 °F 30.19 in Calm   3.0 mph 86 % 0.00 in 0 W/m2
18:56 60.3 °F 56.1 °F 30.19 in Calm   1.0 mph 86 % 0.00 in 0 W/m2
19:01 60.1 °F 55.9 °F 30.19 in Calm   2.0 mph 86 % 0.00 in 0 W/m2
19:06 59.9 °F 56.0 °F 30.19 in East 1.0 mph 5.0 mph 87 % 0.00 in 0 W/m2
19:11 59.9 °F 56.0 °F 30.19 in East 2.0 mph 6.0 mph 87 % 0.00 in 0 W/m2
19:16 59.9 °F 56.3 °F 30.19 in East 3.0 mph 6.0 mph 88 % 0.00 in 0 W/m2
19:21 59.7 °F 56.2 °F 30.19 in East 2.0 mph 6.0 mph 88 % 0.00 in 0 W/m2
19:26 59.7 °F 56.2 °F 30.19 in East 1.0 mph 5.0 mph 88 % 0.00 in 0 W/m2
19:31 59.5 °F 56.0 °F 30.19 in East 1.0 mph 4.0 mph 88 % 0.00 in 0 W/m2
19:36 59.5 °F 56.0 °F 30.19 in East 1.0 mph 5.0 mph 88 % 0.00 in 0 W/m2
19:41 59.4 °F 55.8 °F 30.20 in East 1.0 mph 5.0 mph 88 % 0.00 in 0 W/m2
19:46 59.2 °F 55.9 °F 30.20 in East 1.0 mph 5.0 mph 89 % 0.00 in 0 W/m2
19:51 59.2 °F 55.9 °F 30.20 in East 1.0 mph 5.0 mph 89 % 0.00 in 0 W/m2
19:56 59.0 °F 55.8 °F 30.20 in East 1.0 mph 6.0 mph 89 % 0.00 in 0 W/m2
20:01 58.8 °F 55.9 °F 30.20 in Calm   6.0 mph 90 % 0.00 in 0 W/m2
20:06 58.6 °F 55.7 °F 30.20 in Calm   4.0 mph 90 % 0.00 in 0 W/m2
20:11 58.6 °F 55.7 °F 30.20 in East 1.0 mph 4.0 mph 90 % 0.00 in 0 W/m2
20:16 58.5 °F 55.5 °F 30.20 in East 1.0 mph 5.0 mph 90 % 0.00 in 0 W/m2
20:21 58.5 °F 55.8 °F 30.20 in East 1.0 mph 5.0 mph 91 % 0.00 in 0 W/m2
20:26 58.6 °F 56.0 °F 30.21 in East 2.0 mph 8.0 mph 91 % 0.00 in 0 W/m2
20:31 58.6 °F 56.0 °F 30.21 in East 3.0 mph 8.0 mph 91 % 0.00 in 0 W/m2
20:37 58.6 °F 56.0 °F 30.21 in East 3.0 mph 6.0 mph 91 % 0.00 in 0 W/m2
20:42 58.6 °F 56.3 °F 30.21 in East 2.0 mph 6.0 mph 92 % 0.00 in 0 W/m2
20:47 58.6 °F 56.3 °F 30.21 in East 2.0 mph 6.0 mph 92 % 0.00 in 0 W/m2
20:52 58.5 °F 56.1 °F 30.21 in East 3.0 mph 6.0 mph 92 % 0.00 in 0 W/m2
20:57 58.5 °F 56.1 °F 30.21 in East 3.0 mph 7.0 mph 92 % 0.00 in 0 W/m2
21:02 58.3 °F 56.0 °F 30.21 in East 4.0 mph 9.0 mph 92 % 0.00 in 0 W/m2
21:07 58.1 °F 55.8 °F 30.21 in East 4.0 mph 9.0 mph 92 % 0.00 in 0 W/m2
21:12 58.1 °F 55.8 °F 30.21 in East 3.0 mph 7.0 mph 92 % 0.00 in 0 W/m2
21:17 57.9 °F 55.9 °F 30.21 in East 4.0 mph 9.0 mph 93 % 0.00 in 0 W/m2
21:22 57.7 °F 55.7 °F 30.21 in East 4.0 mph 9.0 mph 93 % 0.00 in 0 W/m2
21:27 57.7 °F 55.7 °F 30.21 in East 3.0 mph 9.0 mph 93 % 0.00 in 0 W/m2
21:32 57.6 °F 55.6 °F 30.21 in East 4.0 mph 9.0 mph 93 % 0.00 in 0 W/m2
21:37 57.6 °F 55.6 °F 30.21 in East 4.0 mph 8.0 mph 93 % 0.00 in 0 W/m2
21:42 57.4 °F 55.4 °F 30.21 in ESE 5.0 mph 12.0 mph 93 % 0.00 in 0 W/m2
21:47 57.2 °F 55.2 °F 30.21 in ESE 6.0 mph 12.0 mph 93 % 0.00 in 0 W/m2
21:52 57.2 °F 55.2 °F 30.21 in ESE 6.0 mph 12.0 mph 93 % 0.00 in 0 W/m2
21:53 57.2 °F 55.2 °F 30.21 in ESE 6.0 mph 12.0 mph 93 % 0.00 in 0 W/m2
21:58 57.0 °F 55.3 °F 30.21 in ESE 6.0 mph 11.0 mph 94 % 0.00 in 0 W/m2
22:03 56.8 °F 55.1 °F 30.21 in ESE 7.0 mph 12.0 mph 94 % 0.00 in 0 W/m2
22:08 56.8 °F 55.1 °F 30.21 in ESE 7.0 mph 12.0 mph 94 % 0.00 in 0 W/m2
22:13 56.7 °F 55.0 °F 30.21 in ESE 7.0 mph 14.0 mph 94 % 0.00 in 0 W/m2
22:18 56.7 °F 55.0 °F 30.21 in ESE 6.0 mph 14.0 mph 94 % 0.00 in 0 W/m2
22:23 56.5 °F 54.8 °F 30.21 in East 5.0 mph 9.0 mph 94 % 0.00 in 0 W/m2
22:28 56.3 °F 54.6 °F 30.21 in ESE 5.0 mph 11.0 mph 94 % 0.00 in 0 W/m2
22:33 56.1 °F 54.4 °F 30.21 in ESE 6.0 mph 11.0 mph 94 % 0.00 in 0 W/m2
22:38 56.1 °F 54.4 °F 30.21 in ESE 6.0 mph 11.0 mph 94 % 0.00 in 0 W/m2
22:43 55.9 °F 54.5 °F 30.21 in ESE 6.0 mph 11.0 mph 95 % 0.00 in 0 W/m2
22:48 55.9 °F 54.5 °F 30.21 in ESE 4.0 mph 8.0 mph 95 % 0.00 in 0 W/m2
22:53 55.8 °F 54.3 °F 30.21 in ESE 4.0 mph 9.0 mph 95 % 0.00 in 0 W/m2
22:58 55.8 °F 54.3 °F 30.21 in ESE 6.0 mph 11.0 mph 95 % 0.00 in 0 W/m2
23:03 55.6 °F 53.9 °F 30.21 in SE 6.0 mph 11.0 mph 94 % 0.00 in 0 W/m2
23:08 55.6 °F 53.9 °F 30.21 in SE 7.0 mph 11.0 mph 94 % 0.00 in 0 W/m2
23:13 55.6 °F 53.9 °F 30.21 in SE 6.0 mph 10.0 mph 94 % 0.00 in 0 W/m2
23:18 55.6 °F 54.2 °F 30.21 in SE 5.0 mph 10.0 mph 95 % 0.00 in 0 W/m2
23:23 55.6 °F 54.2 °F 30.20 in SE 5.0 mph 8.0 mph 95 % 0.00 in 0 W/m2
23:28 55.8 °F 54.3 °F 30.21 in ESE 4.0 mph 8.0 mph 95 % 0.00 in 0 W/m2
23:34 55.8 °F 54.3 °F 30.21 in ESE 3.0 mph 7.0 mph 95 % 0.00 in 0 W/m2
23:38 55.8 °F 54.3 °F 30.21 in ESE 3.0 mph 6.0 mph 95 % 0.00 in 0 W/m2
23:44 55.8 °F 54.3 °F 30.21 in ESE 3.0 mph 6.0 mph 95 % 0.00 in 0 W/m2
23:49 55.8 °F 54.3 °F 30.21 in ESE 3.0 mph 6.0 mph 95 % 0.00 in 0 W/m2
23:54 55.8 °F 54.3 °F 30.20 in ESE 2.0 mph 5.0 mph 95 % 0.00 in 0 W/m2
23:59 55.9 °F 54.5 °F 30.20 in ESE 3.0 mph 6.0 mph 95 % 0.00 in 0 W/m2
Delerius-Weather
Compliments of Weather Underground - 2.25 mb

Data updates at regular intervals.